sensor_id;sensor_type;location;lat;lon;timestamp;P1;durP1;ratioP1;P2;durP2;ratioP2
22861;SDS011;11598;50.652;6.172;2023-08-17T00:07:54;72.70;;;39.00;;
22861;SDS011;11598;50.652;6.172;2023-08-17T00:17:54;117.07;;;42.58;;
22861;SDS011;11598;50.652;6.172;2023-08-17T00:27:54;84.20;;;43.75;;
22861;SDS011;11598;50.652;6.172;2023-08-17T00:37:55;86.60;;;41.40;;
22861;SDS011;11598;50.652;6.172;2023-08-17T00:47:56;173.88;;;42.35;;
22861;SDS011;11598;50.652;6.172;2023-08-17T00:57:57;399.25;;;55.38;;
22861;SDS011;11598;50.652;6.172;2023-08-17T01:07:58;377.05;;;50.08;;
22861;SDS011;11598;50.652;6.172;2023-08-17T01:28:33;753.40;;;70.40;;
22861;SDS011;11598;50.652;6.172;2023-08-17T01:38:34;787.47;;;62.28;;
22861;SDS011;11598;50.652;6.172;2023-08-17T01:48:36;860.95;;;57.70;;
22861;SDS011;11598;50.652;6.172;2023-08-17T01:58:36;642.60;;;58.38;;
22861;SDS011;11598;50.652;6.172;2023-08-17T02:08:37;454.08;;;47.40;;
22861;SDS011;11598;50.652;6.172;2023-08-17T02:18:38;536.67;;;47.50;;
22861;SDS011;11598;50.652;6.172;2023-08-17T02:28:38;609.38;;;55.97;;
22861;SDS011;11598;50.652;6.172;2023-08-17T02:38:38;624.10;;;51.92;;
22861;SDS011;11598;50.652;6.172;2023-08-17T02:48:39;539.22;;;43.33;;
22861;SDS011;11598;50.652;6.172;2023-08-17T02:58:39;574.67;;;54.35;;
22861;SDS011;11598;50.652;6.172;2023-08-17T03:08:43;647.20;;;53.35;;
22861;SDS011;11598;50.652;6.172;2023-08-17T03:18:43;291.75;;;36.20;;
22861;SDS011;11598;50.652;6.172;2023-08-17T03:28:44;248.23;;;24.42;;
22861;SDS011;11598;50.652;6.172;2023-08-17T03:38:44;386.00;;;23.92;;
22861;SDS011;11598;50.652;6.172;2023-08-17T03:48:45;284.20;;;24.20;;
22861;SDS011;11598;50.652;6.172;2023-08-17T03:58:45;419.02;;;27.90;;
22861;SDS011;11598;50.652;6.172;2023-08-17T04:08:45;349.42;;;30.30;;
22861;SDS011;11598;50.652;6.172;2023-08-17T04:18:46;442.23;;;36.85;;
22861;SDS011;11598;50.652;6.172;2023-08-17T04:28:46;372.15;;;30.70;;
22861;SDS011;11598;50.652;6.172;2023-08-17T04:38:47;620.47;;;28.57;;
22861;SDS011;11598;50.652;6.172;2023-08-17T04:48:47;599.83;;;34.63;;
22861;SDS011;11598;50.652;6.172;2023-08-17T04:58:47;129.73;;;14.75;;
22861;SDS011;11598;50.652;6.172;2023-08-17T05:08:47;176.27;;;21.30;;
22861;SDS011;11598;50.652;6.172;2023-08-17T05:18:48;399.63;;;24.45;;
22861;SDS011;11598;50.652;6.172;2023-08-17T05:28:48;293.42;;;22.77;;
22861;SDS011;11598;50.652;6.172;2023-08-17T05:38:48;594.45;;;26.00;;
22861;SDS011;11598;50.652;6.172;2023-08-17T05:48:49;587.33;;;27.60;;
22861;SDS011;11598;50.652;6.172;2023-08-17T05:58:49;464.05;;;23.92;;
22861;SDS011;11598;50.652;6.172;2023-08-17T06:08:50;533.55;;;24.33;;
22861;SDS011;11598;50.652;6.172;2023-08-17T06:18:50;882.78;;;36.65;;
22861;SDS011;11598;50.652;6.172;2023-08-17T06:28:50;643.45;;;30.58;;
22861;SDS011;11598;50.652;6.172;2023-08-17T06:38:51;501.52;;;31.00;;
22861;SDS011;11598;50.652;6.172;2023-08-17T06:48:51;356.27;;;25.17;;
22861;SDS011;11598;50.652;6.172;2023-08-17T06:58:52;394.85;;;30.73;;
22861;SDS011;11598;50.652;6.172;2023-08-17T07:08:52;555.05;;;31.20;;
22861;SDS011;11598;50.652;6.172;2023-08-17T07:18:53;129.63;;;16.55;;
22861;SDS011;11598;50.652;6.172;2023-08-17T07:28:53;313.98;;;27.70;;
22861;SDS011;11598;50.652;6.172;2023-08-17T07:38:53;249.38;;;29.35;;
22861;SDS011;11598;50.652;6.172;2023-08-17T07:48:54;232.85;;;26.83;;
22861;SDS011;11598;50.652;6.172;2023-08-17T07:58:54;326.45;;;25.98;;
22861;SDS011;11598;50.652;6.172;2023-08-17T08:08:54;214.23;;;25.05;;
22861;SDS011;11598;50.652;6.172;2023-08-17T08:18:55;203.27;;;29.58;;
22861;SDS011;11598;50.652;6.172;2023-08-17T08:28:55;77.95;;;21.83;;
22861;SDS011;11598;50.652;6.172;2023-08-17T08:38:55;89.50;;;20.77;;
22861;SDS011;11598;50.652;6.172;2023-08-17T08:48:56;55.47;;;22.98;;
22861;SDS011;11598;50.652;6.172;2023-08-17T08:58:56;39.25;;;20.30;;
22861;SDS011;11598;50.652;6.172;2023-08-17T09:09:01;54.35;;;23.90;;
22861;SDS011;11598;50.652;6.172;2023-08-17T09:19:02;46.15;;;25.13;;
22861;SDS011;11598;50.652;6.172;2023-08-17T09:29:15;54.03;;;28.20;;
22861;SDS011;11598;50.652;6.172;2023-08-17T09:39:17;55.35;;;29.00;;
22861;SDS011;11598;50.652;6.172;2023-08-17T09:49:18;59.60;;;33.20;;
22861;SDS011;11598;50.652;6.172;2023-08-17T09:59:19;56.17;;;32.22;;
22861;SDS011;11598;50.652;6.172;2023-08-17T10:09:22;51.65;;;33.10;;
22861;SDS011;11598;50.652;6.172;2023-08-17T10:19:47;57.20;;;35.63;;
22861;SDS011;11598;50.652;6.172;2023-08-17T10:29:52;57.90;;;35.25;;
22861;SDS011;11598;50.652;6.172;2023-08-17T10:39:52;59.72;;;37.92;;
22861;SDS011;11598;50.652;6.172;2023-08-17T10:50:03;71.93;;;41.07;;
22861;SDS011;11598;50.652;6.172;2023-08-17T11:20:22;110.40;;;41.83;;
22861;SDS011;11598;50.652;6.172;2023-08-17T11:30:23;74.03;;;39.58;;
22861;SDS011;11598;50.652;6.172;2023-08-17T11:40:25;83.88;;;37.65;;
22861;SDS011;11598;50.652;6.172;2023-08-17T11:50:26;72.78;;;36.45;;
22861;SDS011;11598;50.652;6.172;2023-08-17T12:00:26;66.72;;;35.20;;
22861;SDS011;11598;50.652;6.172;2023-08-17T12:10:27;64.13;;;35.75;;
22861;SDS011;11598;50.652;6.172;2023-08-17T12:20:28;66.60;;;37.20;;
22861;SDS011;11598;50.652;6.172;2023-08-17T12:30:30;54.95;;;32.28;;
22861;SDS011;11598;50.652;6.172;2023-08-17T12:40:32;48.30;;;30.55;;
22861;SDS011;11598;50.652;6.172;2023-08-17T12:50:32;48.28;;;29.58;;
22861;SDS011;11598;50.652;6.172;2023-08-17T13:00:33;44.97;;;29.50;;
22861;SDS011;11598;50.652;6.172;2023-08-17T13:10:33;53.30;;;30.75;;
22861;SDS011;11598;50.652;6.172;2023-08-17T13:20:35;36.22;;;24.55;;
22861;SDS011;11598;50.652;6.172;2023-08-17T13:30:37;31.80;;;23.45;;
22861;SDS011;11598;50.652;6.172;2023-08-17T13:40:38;33.85;;;22.45;;
22861;SDS011;11598;50.652;6.172;2023-08-17T13:50:39;30.42;;;20.73;;
22861;SDS011;11598;50.652;6.172;2023-08-17T14:00:40;23.90;;;19.13;;
22861;SDS011;11598;50.652;6.172;2023-08-17T14:10:40;23.73;;;18.07;;
22861;SDS011;11598;50.652;6.172;2023-08-17T14:20:41;26.23;;;19.35;;
22861;SDS011;11598;50.652;6.172;2023-08-17T14:30:41;29.60;;;19.00;;
22861;SDS011;11598;50.652;6.172;2023-08-17T14:40:43;31.88;;;19.58;;
22861;SDS011;11598;50.652;6.172;2023-08-17T14:50:44;27.90;;;20.50;;
22861;SDS011;11598;50.652;6.172;2023-08-17T15:00:45;31.15;;;21.60;;
22861;SDS011;11598;50.652;6.172;2023-08-17T15:10:46;33.33;;;21.77;;
22861;SDS011;11598;50.652;6.172;2023-08-17T15:20:47;33.50;;;23.45;;
22861;SDS011;11598;50.652;6.172;2023-08-17T15:30:49;27.85;;;21.27;;
22861;SDS011;11598;50.652;6.172;2023-08-17T15:40:59;32.53;;;22.77;;
22861;SDS011;11598;50.652;6.172;2023-08-17T15:50:59;31.77;;;23.17;;
22861;SDS011;11598;50.652;6.172;2023-08-17T16:01:00;34.08;;;23.33;;
22861;SDS011;11598;50.652;6.172;2023-08-17T16:11:00;35.22;;;24.10;;
22861;SDS011;11598;50.652;6.172;2023-08-17T16:21:01;32.15;;;23.83;;
22861;SDS011;11598;50.652;6.172;2023-08-17T16:31:01;35.58;;;24.30;;
22861;SDS011;11598;50.652;6.172;2023-08-17T16:41:01;38.55;;;24.90;;
22861;SDS011;11598;50.652;6.172;2023-08-17T16:51:02;36.90;;;25.15;;
22861;SDS011;11598;50.652;6.172;2023-08-17T17:01:02;34.17;;;22.95;;
22861;SDS011;11598;50.652;6.172;2023-08-17T17:11:04;34.83;;;24.35;;
22861;SDS011;11598;50.652;6.172;2023-08-17T17:21:05;42.97;;;26.95;;
22861;SDS011;11598;50.652;6.172;2023-08-17T17:31:06;44.42;;;27.70;;
22861;SDS011;11598;50.652;6.172;2023-08-17T17:41:07;51.53;;;30.67;;
22861;SDS011;11598;50.652;6.172;2023-08-17T17:51:07;51.72;;;29.90;;
22861;SDS011;11598;50.652;6.172;2023-08-17T18:01:08;47.22;;;26.67;;
22861;SDS011;11598;50.652;6.172;2023-08-17T18:11:08;48.55;;;27.75;;
22861;SDS011;11598;50.652;6.172;2023-08-17T18:21:09;53.58;;;29.92;;
22861;SDS011;11598;50.652;6.172;2023-08-17T18:31:09;59.30;;;31.63;;
22861;SDS011;11598;50.652;6.172;2023-08-17T18:41:09;47.42;;;30.60;;
22861;SDS011;11598;50.652;6.172;2023-08-17T18:51:10;47.65;;;31.10;;
22861;SDS011;11598;50.652;6.172;2023-08-17T19:01:10;60.22;;;35.88;;
22861;SDS011;11598;50.652;6.172;2023-08-17T19:11:11;53.50;;;33.53;;
22861;SDS011;11598;50.652;6.172;2023-08-17T19:21:11;56.97;;;33.47;;
22861;SDS011;11598;50.652;6.172;2023-08-17T19:31:11;63.50;;;39.13;;
22861;SDS011;11598;50.652;6.172;2023-08-17T19:41:12;51.63;;;34.85;;
22861;SDS011;11598;50.652;6.172;2023-08-17T19:51:14;52.45;;;34.08;;
22861;SDS011;11598;50.652;6.172;2023-08-17T20:01:15;52.00;;;32.95;;
22861;SDS011;11598;50.652;6.172;2023-08-17T20:11:17;44.47;;;31.85;;
22861;SDS011;11598;50.652;6.172;2023-08-17T20:21:17;52.92;;;33.55;;
22861;SDS011;11598;50.652;6.172;2023-08-17T20:31:18;49.60;;;30.38;;
22861;SDS011;11598;50.652;6.172;2023-08-17T20:41:18;48.03;;;31.23;;
22861;SDS011;11598;50.652;6.172;2023-08-17T20:51:19;45.92;;;30.08;;
22861;SDS011;11598;50.652;6.172;2023-08-17T21:01:20;49.30;;;31.48;;
22861;SDS011;11598;50.652;6.172;2023-08-17T21:11:20;46.35;;;29.45;;
22861;SDS011;11598;50.652;6.172;2023-08-17T21:21:21;43.20;;;29.65;;
22861;SDS011;11598;50.652;6.172;2023-08-17T21:31:21;47.65;;;29.02;;
22861;SDS011;11598;50.652;6.172;2023-08-17T21:41:21;57.85;;;32.60;;
22861;SDS011;11598;50.652;6.172;2023-08-17T21:51:22;60.25;;;32.45;;
22861;SDS011;11598;50.652;6.172;2023-08-17T22:01:22;49.45;;;28.63;;
22861;SDS011;11598;50.652;6.172;2023-08-17T22:11:22;56.85;;;30.77;;
22861;SDS011;11598;50.652;6.172;2023-08-17T22:21:23;51.92;;;28.15;;
22861;SDS011;11598;50.652;6.172;2023-08-17T22:31:23;40.58;;;22.95;;
22861;SDS011;11598;50.652;6.172;2023-08-17T22:41:23;36.95;;;22.60;;
22861;SDS011;11598;50.652;6.172;2023-08-17T22:51:24;39.15;;;20.92;;
22861;SDS011;11598;50.652;6.172;2023-08-17T23:01:24;45.22;;;27.60;;
22861;SDS011;11598;50.652;6.172;2023-08-17T23:11:25;53.92;;;26.95;;
22861;SDS011;11598;50.652;6.172;2023-08-17T23:21:25;57.05;;;25.33;;
22861;SDS011;11598;50.652;6.172;2023-08-17T23:31:27;52.00;;;25.40;;
22861;SDS011;11598;50.652;6.172;2023-08-17T23:41:27;60.53;;;24.35;;
22861;SDS011;11598;50.652;6.172;2023-08-17T23:51:28;34.38;;;20.50;;
